sensor_id;sensor_type;location;lat;lon;timestamp;temperature;humidity
37702;DHT22;23548;51.196;6.838;2023-07-31T00:01:16;17.00;99.90
37702;DHT22;23548;51.196;6.838;2023-07-31T00:03:42;17.00;99.90
37702;DHT22;23548;51.196;6.838;2023-07-31T00:06:08;17.00;99.90
37702;DHT22;23548;51.196;6.838;2023-07-31T00:08:34;16.90;99.90
37702;DHT22;23548;51.196;6.838;2023-07-31T00:10:59;17.00;99.90
37702;DHT22;23548;51.196;6.838;2023-07-31T00:13:25;17.00;99.90
37702;DHT22;23548;51.196;6.838;2023-07-31T00:15:51;16.90;99.90
37702;DHT22;23548;51.196;6.838;2023-07-31T00:18:16;17.00;99.90
37702;DHT22;23548;51.196;6.838;2023-07-31T00:20:42;17.00;99.90
37702;DHT22;23548;51.196;6.838;2023-07-31T00:23:08;16.90;99.90
37702;DHT22;23548;51.196;6.838;2023-07-31T00:25:34;17.00;99.90
37702;DHT22;23548;51.196;6.838;2023-07-31T00:27:59;17.00;99.90
37702;DHT22;23548;51.196;6.838;2023-07-31T00:30:25;17.00;99.90
37702;DHT22;23548;51.196;6.838;2023-07-31T00:32:52;17.00;99.90
37702;DHT22;23548;51.196;6.838;2023-07-31T00:35:18;17.00;99.90
37702;DHT22;23548;51.196;6.838;2023-07-31T00:37:43;17.10;99.90
37702;DHT22;23548;51.196;6.838;2023-07-31T00:40:09;17.10;99.90
37702;DHT22;23548;51.196;6.838;2023-07-31T00:42:35;17.10;99.90
37702;DHT22;23548;51.196;6.838;2023-07-31T00:45:01;17.20;99.90
37702;DHT22;23548;51.196;6.838;2023-07-31T00:47:26;17.20;99.90
37702;DHT22;23548;51.196;6.838;2023-07-31T00:49:52;17.20;99.90
37702;DHT22;23548;51.196;6.838;2023-07-31T00:52:18;17.20;99.90
37702;DHT22;23548;51.196;6.838;2023-07-31T00:54:44;17.20;99.90
37702;DHT22;23548;51.196;6.838;2023-07-31T00:57:10;17.20;99.90
37702;DHT22;23548;51.196;6.838;2023-07-31T00:59:36;17.20;99.90
37702;DHT22;23548;51.196;6.838;2023-07-31T01:02:02;17.20;99.90
37702;DHT22;23548;51.196;6.838;2023-07-31T01:04:29;17.30;99.90
37702;DHT22;23548;51.196;6.838;2023-07-31T01:07:14;17.20;99.90
37702;DHT22;23548;51.196;6.838;2023-07-31T01:12:24;17.10;99.90
37702;DHT22;23548;51.196;6.838;2023-07-31T01:15:11;17.10;99.90
37702;DHT22;23548;51.196;6.838;2023-07-31T01:17:38;17.20;99.90
37702;DHT22;23548;51.196;6.838;2023-07-31T01:20:11;17.20;99.90
37702;DHT22;23548;51.196;6.838;2023-07-31T01:28:04;17.10;99.90
37702;DHT22;23548;51.196;6.838;2023-07-31T01:30:36;17.20;99.90
37702;DHT22;23548;51.196;6.838;2023-07-31T01:33:03;17.20;99.90
37702;DHT22;23548;51.196;6.838;2023-07-31T01:35:34;17.30;99.90
37702;DHT22;23548;51.196;6.838;2023-07-31T01:38:22;17.30;99.90
37702;DHT22;23548;51.196;6.838;2023-07-31T01:40:51;17.20;99.90
37702;DHT22;23548;51.196;6.838;2023-07-31T01:43:18;17.30;99.90
37702;DHT22;23548;51.196;6.838;2023-07-31T01:45:44;17.30;99.90
37702;DHT22;23548;51.196;6.838;2023-07-31T01:48:10;17.20;99.90
37702;DHT22;23548;51.196;6.838;2023-07-31T01:50:35;17.30;99.90
37702;DHT22;23548;51.196;6.838;2023-07-31T01:53:01;17.30;99.90
37702;DHT22;23548;51.196;6.838;2023-07-31T01:55:27;17.30;99.90
37702;DHT22;23548;51.196;6.838;2023-07-31T01:57:53;17.30;99.90
37702;DHT22;23548;51.196;6.838;2023-07-31T02:00:19;17.30;99.90
37702;DHT22;23548;51.196;6.838;2023-07-31T02:02:44;17.30;99.90
37702;DHT22;23548;51.196;6.838;2023-07-31T02:05:10;17.30;99.90
37702;DHT22;23548;51.196;6.838;2023-07-31T02:07:36;17.20;99.90
37702;DHT22;23548;51.196;6.838;2023-07-31T02:10:02;17.20;99.90
37702;DHT22;23548;51.196;6.838;2023-07-31T02:12:28;17.30;99.90
37702;DHT22;23548;51.196;6.838;2023-07-31T02:14:56;17.20;99.90
37702;DHT22;23548;51.196;6.838;2023-07-31T02:17:22;17.30;99.90
37702;DHT22;23548;51.196;6.838;2023-07-31T02:19:48;17.20;99.90
37702;DHT22;23548;51.196;6.838;2023-07-31T02:22:14;17.20;99.90
37702;DHT22;23548;51.196;6.838;2023-07-31T02:24:39;17.10;99.90
37702;DHT22;23548;51.196;6.838;2023-07-31T02:27:05;17.10;99.90
37702;DHT22;23548;51.196;6.838;2023-07-31T02:29:31;17.20;99.90
37702;DHT22;23548;51.196;6.838;2023-07-31T02:31:57;17.20;99.90
37702;DHT22;23548;51.196;6.838;2023-07-31T02:34:23;17.20;99.90
37702;DHT22;23548;51.196;6.838;2023-07-31T02:36:48;17.20;99.90
37702;DHT22;23548;51.196;6.838;2023-07-31T02:39:14;17.20;99.90
37702;DHT22;23548;51.196;6.838;2023-07-31T02:41:40;17.20;99.90
37702;DHT22;23548;51.196;6.838;2023-07-31T02:44:06;17.10;99.90
37702;DHT22;23548;51.196;6.838;2023-07-31T02:46:32;17.20;99.90
37702;DHT22;23548;51.196;6.838;2023-07-31T02:48:57;17.20;99.90
37702;DHT22;23548;51.196;6.838;2023-07-31T02:51:23;17.20;99.90
37702;DHT22;23548;51.196;6.838;2023-07-31T02:53:49;17.20;99.90
37702;DHT22;23548;51.196;6.838;2023-07-31T02:56:15;17.30;99.90
37702;DHT22;23548;51.196;6.838;2023-07-31T02:58:40;17.40;99.90
37702;DHT22;23548;51.196;6.838;2023-07-31T03:01:06;17.40;99.90
37702;DHT22;23548;51.196;6.838;2023-07-31T03:03:32;17.40;99.90
37702;DHT22;23548;51.196;6.838;2023-07-31T03:05:58;17.40;99.90
37702;DHT22;23548;51.196;6.838;2023-07-31T03:08:23;17.40;99.90
37702;DHT22;23548;51.196;6.838;2023-07-31T03:10:49;17.40;99.90
37702;DHT22;23548;51.196;6.838;2023-07-31T03:13:15;17.40;99.90
37702;DHT22;23548;51.196;6.838;2023-07-31T03:15:44;17.40;99.90
37702;DHT22;23548;51.196;6.838;2023-07-31T03:18:09;17.40;99.90
37702;DHT22;23548;51.196;6.838;2023-07-31T03:20:35;17.40;99.90
37702;DHT22;23548;51.196;6.838;2023-07-31T03:23:01;17.50;99.90
37702;DHT22;23548;51.196;6.838;2023-07-31T03:25:26;17.50;99.90
37702;DHT22;23548;51.196;6.838;2023-07-31T03:27:52;17.50;99.90
37702;DHT22;23548;51.196;6.838;2023-07-31T03:30:18;17.50;99.90
37702;DHT22;23548;51.196;6.838;2023-07-31T03:32:44;17.50;99.90
37702;DHT22;23548;51.196;6.838;2023-07-31T03:35:09;17.50;99.90
37702;DHT22;23548;51.196;6.838;2023-07-31T03:37:35;17.50;99.90
37702;DHT22;23548;51.196;6.838;2023-07-31T03:40:01;17.50;99.90
37702;DHT22;23548;51.196;6.838;2023-07-31T03:42:27;17.50;99.90
37702;DHT22;23548;51.196;6.838;2023-07-31T03:44:53;17.50;99.90
37702;DHT22;23548;51.196;6.838;2023-07-31T03:47:19;17.50;99.90
37702;DHT22;23548;51.196;6.838;2023-07-31T03:49:45;17.50;99.90
37702;DHT22;23548;51.196;6.838;2023-07-31T03:52:10;17.50;99.90
37702;DHT22;23548;51.196;6.838;2023-07-31T03:54:36;17.50;99.90
37702;DHT22;23548;51.196;6.838;2023-07-31T03:57:02;17.50;99.90
37702;DHT22;23548;51.196;6.838;2023-07-31T03:59:28;17.50;99.90
37702;DHT22;23548;51.196;6.838;2023-07-31T04:01:53;17.50;99.90
37702;DHT22;23548;51.196;6.838;2023-07-31T04:04:19;17.50;99.90
37702;DHT22;23548;51.196;6.838;2023-07-31T04:06:45;17.50;99.90
37702;DHT22;23548;51.196;6.838;2023-07-31T04:09:10;17.50;99.90
37702;DHT22;23548;51.196;6.838;2023-07-31T04:11:36;17.50;99.90
37702;DHT22;23548;51.196;6.838;2023-07-31T04:14:02;17.30;99.90
37702;DHT22;23548;51.196;6.838;2023-07-31T04:16:27;17.40;99.90
37702;DHT22;23548;51.196;6.838;2023-07-31T04:18:53;17.50;99.90
37702;DHT22;23548;51.196;6.838;2023-07-31T04:21:19;17.40;99.90
37702;DHT22;23548;51.196;6.838;2023-07-31T04:23:44;17.40;99.90
37702;DHT22;23548;51.196;6.838;2023-07-31T04:26:10;17.40;99.90
37702;DHT22;23548;51.196;6.838;2023-07-31T04:28:36;17.40;99.90
37702;DHT22;23548;51.196;6.838;2023-07-31T04:31:02;17.40;99.90
37702;DHT22;23548;51.196;6.838;2023-07-31T04:33:27;17.40;99.90
37702;DHT22;23548;51.196;6.838;2023-07-31T04:35:53;17.40;99.90
37702;DHT22;23548;51.196;6.838;2023-07-31T04:38:20;17.30;99.90
37702;DHT22;23548;51.196;6.838;2023-07-31T04:40:46;17.40;99.90
37702;DHT22;23548;51.196;6.838;2023-07-31T04:43:12;17.40;99.90
37702;DHT22;23548;51.196;6.838;2023-07-31T04:45:38;17.40;99.90
37702;DHT22;23548;51.196;6.838;2023-07-31T04:48:04;17.40;99.90
37702;DHT22;23548;51.196;6.838;2023-07-31T04:50:30;17.40;99.90
37702;DHT22;23548;51.196;6.838;2023-07-31T04:52:56;17.40;99.90
37702;DHT22;23548;51.196;6.838;2023-07-31T04:55:22;17.40;99.90
37702;DHT22;23548;51.196;6.838;2023-07-31T04:57:47;17.50;99.90
37702;DHT22;23548;51.196;6.838;2023-07-31T05:00:13;17.60;99.90
37702;DHT22;23548;51.196;6.838;2023-07-31T05:02:39;17.60;99.90
37702;DHT22;23548;51.196;6.838;2023-07-31T05:05:05;17.60;99.90
37702;DHT22;23548;51.196;6.838;2023-07-31T05:07:31;17.70;99.90
37702;DHT22;23548;51.196;6.838;2023-07-31T05:09:56;17.80;99.90
37702;DHT22;23548;51.196;6.838;2023-07-31T05:12:22;17.80;99.90
37702;DHT22;23548;51.196;6.838;2023-07-31T05:14:48;17.80;99.90
37702;DHT22;23548;51.196;6.838;2023-07-31T05:17:13;17.90;99.90
37702;DHT22;23548;51.196;6.838;2023-07-31T05:19:39;17.80;99.90
37702;DHT22;23548;51.196;6.838;2023-07-31T05:22:05;17.80;99.90
37702;DHT22;23548;51.196;6.838;2023-07-31T05:24:31;17.90;99.90
37702;DHT22;23548;51.196;6.838;2023-07-31T05:26:57;17.80;99.90
37702;DHT22;23548;51.196;6.838;2023-07-31T05:29:23;17.90;99.90
37702;DHT22;23548;51.196;6.838;2023-07-31T05:31:49;17.90;99.90
37702;DHT22;23548;51.196;6.838;2023-07-31T05:34:14;18.00;99.90
37702;DHT22;23548;51.196;6.838;2023-07-31T05:36:40;18.00;99.90
37702;DHT22;23548;51.196;6.838;2023-07-31T05:39:06;18.00;99.90
37702;DHT22;23548;51.196;6.838;2023-07-31T05:41:34;18.00;99.90
37702;DHT22;23548;51.196;6.838;2023-07-31T05:44:00;17.90;99.90
37702;DHT22;23548;51.196;6.838;2023-07-31T05:46:26;18.00;99.90
37702;DHT22;23548;51.196;6.838;2023-07-31T05:48:52;17.90;99.90
37702;DHT22;23548;51.196;6.838;2023-07-31T05:51:18;17.90;99.90
37702;DHT22;23548;51.196;6.838;2023-07-31T05:53:43;18.00;99.90
37702;DHT22;23548;51.196;6.838;2023-07-31T05:56:09;18.00;99.90
37702;DHT22;23548;51.196;6.838;2023-07-31T05:58:35;18.00;99.90
37702;DHT22;23548;51.196;6.838;2023-07-31T06:01:00;18.00;99.90
37702;DHT22;23548;51.196;6.838;2023-07-31T06:03:26;18.00;99.90
37702;DHT22;23548;51.196;6.838;2023-07-31T06:05:52;18.00;99.90
37702;DHT22;23548;51.196;6.838;2023-07-31T06:08:18;18.00;99.90
37702;DHT22;23548;51.196;6.838;2023-07-31T06:10:44;18.00;99.90
37702;DHT22;23548;51.196;6.838;2023-07-31T06:13:09;18.00;99.90
37702;DHT22;23548;51.196;6.838;2023-07-31T06:15:35;17.90;99.90
37702;DHT22;23548;51.196;6.838;2023-07-31T06:18:01;17.90;99.90
37702;DHT22;23548;51.196;6.838;2023-07-31T06:20:27;17.90;99.90
37702;DHT22;23548;51.196;6.838;2023-07-31T06:22:54;17.80;99.90
37702;DHT22;23548;51.196;6.838;2023-07-31T06:25:19;17.70;99.90
37702;DHT22;23548;51.196;6.838;2023-07-31T06:27:45;17.70;99.90
37702;DHT22;23548;51.196;6.838;2023-07-31T06:30:11;17.60;99.90
37702;DHT22;23548;51.196;6.838;2023-07-31T06:32:37;17.60;99.90
37702;DHT22;23548;51.196;6.838;2023-07-31T06:35:03;17.50;99.90
37702;DHT22;23548;51.196;6.838;2023-07-31T06:37:29;17.50;99.90
37702;DHT22;23548;51.196;6.838;2023-07-31T06:39:54;17.40;99.90
37702;DHT22;23548;51.196;6.838;2023-07-31T06:42:20;17.40;99.90
37702;DHT22;23548;51.196;6.838;2023-07-31T06:44:46;17.40;99.90
37702;DHT22;23548;51.196;6.838;2023-07-31T06:47:12;17.50;99.90
37702;DHT22;23548;51.196;6.838;2023-07-31T06:49:37;17.50;99.90
37702;DHT22;23548;51.196;6.838;2023-07-31T06:52:04;17.50;99.90
37702;DHT22;23548;51.196;6.838;2023-07-31T06:54:30;17.50;99.90
37702;DHT22;23548;51.196;6.838;2023-07-31T06:56:55;17.60;99.90
37702;DHT22;23548;51.196;6.838;2023-07-31T06:59:21;17.60;99.90
37702;DHT22;23548;51.196;6.838;2023-07-31T07:01:47;17.60;99.90
37702;DHT22;23548;51.196;6.838;2023-07-31T07:04:13;17.60;99.90
37702;DHT22;23548;51.196;6.838;2023-07-31T07:06:40;17.70;99.90
37702;DHT22;23548;51.196;6.838;2023-07-31T07:09:05;17.80;99.90
37702;DHT22;23548;51.196;6.838;2023-07-31T07:11:31;17.70;99.90
37702;DHT22;23548;51.196;6.838;2023-07-31T07:13:57;17.80;99.90
37702;DHT22;23548;51.196;6.838;2023-07-31T07:16:23;17.80;99.90
37702;DHT22;23548;51.196;6.838;2023-07-31T07:18:48;17.70;99.90
37702;DHT22;23548;51.196;6.838;2023-07-31T07:21:14;17.70;99.90
37702;DHT22;23548;51.196;6.838;2023-07-31T07:23:42;17.70;99.90
37702;DHT22;23548;51.196;6.838;2023-07-31T07:26:08;17.70;99.90
37702;DHT22;23548;51.196;6.838;2023-07-31T07:28:33;17.70;99.90
37702;DHT22;23548;51.196;6.838;2023-07-31T07:30:59;17.70;99.90
37702;DHT22;23548;51.196;6.838;2023-07-31T07:33:25;17.80;99.90
37702;DHT22;23548;51.196;6.838;2023-07-31T07:35:51;17.70;99.90
37702;DHT22;23548;51.196;6.838;2023-07-31T07:38:17;17.70;99.90
37702;DHT22;23548;51.196;6.838;2023-07-31T07:40:44;17.70;99.90
37702;DHT22;23548;51.196;6.838;2023-07-31T07:43:12;17.70;99.90
37702;DHT22;23548;51.196;6.838;2023-07-31T07:45:38;17.70;99.90
37702;DHT22;23548;51.196;6.838;2023-07-31T07:48:04;17.70;99.90
37702;DHT22;23548;51.196;6.838;2023-07-31T07:50:29;17.70;99.90
37702;DHT22;23548;51.196;6.838;2023-07-31T07:52:55;17.70;99.90
37702;DHT22;23548;51.196;6.838;2023-07-31T07:55:21;17.70;99.90
37702;DHT22;23548;51.196;6.838;2023-07-31T07:57:47;17.60;99.90
37702;DHT22;23548;51.196;6.838;2023-07-31T08:00:15;17.70;99.90
37702;DHT22;23548;51.196;6.838;2023-07-31T08:02:42;17.60;99.90
37702;DHT22;23548;51.196;6.838;2023-07-31T08:05:08;17.70;99.90
37702;DHT22;23548;51.196;6.838;2023-07-31T08:07:34;17.50;99.90
37702;DHT22;23548;51.196;6.838;2023-07-31T08:10:00;17.70;99.90
37702;DHT22;23548;51.196;6.838;2023-07-31T08:12:25;17.70;99.90
37702;DHT22;23548;51.196;6.838;2023-07-31T08:14:51;17.70;99.90
37702;DHT22;23548;51.196;6.838;2023-07-31T08:17:17;17.90;99.90
37702;DHT22;23548;51.196;6.838;2023-07-31T08:19:43;18.10;99.90
37702;DHT22;23548;51.196;6.838;2023-07-31T08:22:09;18.00;99.90
37702;DHT22;23548;51.196;6.838;2023-07-31T08:24:35;17.90;99.90
37702;DHT22;23548;51.196;6.838;2023-07-31T08:27:01;17.80;99.90
37702;DHT22;23548;51.196;6.838;2023-07-31T08:29:26;17.80;99.90
37702;DHT22;23548;51.196;6.838;2023-07-31T08:31:52;17.80;99.90
37702;DHT22;23548;51.196;6.838;2023-07-31T08:34:18;18.00;99.90
37702;DHT22;23548;51.196;6.838;2023-07-31T08:36:43;18.10;99.90
37702;DHT22;23548;51.196;6.838;2023-07-31T08:39:10;18.40;99.90
37702;DHT22;23548;51.196;6.838;2023-07-31T08:41:38;18.30;99.90
37702;DHT22;23548;51.196;6.838;2023-07-31T08:44:08;18.10;99.90
37702;DHT22;23548;51.196;6.838;2023-07-31T08:46:34;18.30;99.90
37702;DHT22;23548;51.196;6.838;2023-07-31T08:49:04;18.40;99.90
37702;DHT22;23548;51.196;6.838;2023-07-31T08:51:33;18.40;99.90
37702;DHT22;23548;51.196;6.838;2023-07-31T08:53:59;18.20;99.90
37702;DHT22;23548;51.196;6.838;2023-07-31T08:56:26;18.20;99.90
37702;DHT22;23548;51.196;6.838;2023-07-31T08:58:53;18.20;99.90
37702;DHT22;23548;51.196;6.838;2023-07-31T09:01:19;18.20;99.90
37702;DHT22;23548;51.196;6.838;2023-07-31T09:03:46;18.30;99.90
37702;DHT22;23548;51.196;6.838;2023-07-31T09:06:13;18.30;99.90
37702;DHT22;23548;51.196;6.838;2023-07-31T09:08:42;18.30;99.90
37702;DHT22;23548;51.196;6.838;2023-07-31T09:11:08;18.30;99.90
37702;DHT22;23548;51.196;6.838;2023-07-31T09:13:34;18.40;99.90
37702;DHT22;23548;51.196;6.838;2023-07-31T09:16:00;18.30;99.90
37702;DHT22;23548;51.196;6.838;2023-07-31T09:18:26;18.20;99.90
37702;DHT22;23548;51.196;6.838;2023-07-31T09:21:02;18.10;99.90
37702;DHT22;23548;51.196;6.838;2023-07-31T09:23:44;18.10;99.90
37702;DHT22;23548;51.196;6.838;2023-07-31T09:26:10;18.10;99.90
37702;DHT22;23548;51.196;6.838;2023-07-31T09:28:36;18.10;99.90
37702;DHT22;23548;51.196;6.838;2023-07-31T09:31:02;18.20;99.90
37702;DHT22;23548;51.196;6.838;2023-07-31T09:33:28;18.20;99.90
37702;DHT22;23548;51.196;6.838;2023-07-31T09:35:54;18.20;99.90
37702;DHT22;23548;51.196;6.838;2023-07-31T09:38:19;18.20;99.90
37702;DHT22;23548;51.196;6.838;2023-07-31T09:40:47;18.00;99.90
37702;DHT22;23548;51.196;6.838;2023-07-31T09:43:18;18.00;99.90
37702;DHT22;23548;51.196;6.838;2023-07-31T09:45:44;17.90;99.90
37702;DHT22;23548;51.196;6.838;2023-07-31T09:48:15;17.80;99.90
37702;DHT22;23548;51.196;6.838;2023-07-31T09:50:48;17.80;99.90
37702;DHT22;23548;51.196;6.838;2023-07-31T09:53:15;17.70;99.90
37702;DHT22;23548;51.196;6.838;2023-07-31T09:55:41;17.70;99.90
37702;DHT22;23548;51.196;6.838;2023-07-31T09:58:10;17.70;99.90
37702;DHT22;23548;51.196;6.838;2023-07-31T10:00:36;17.70;99.90
37702;DHT22;23548;51.196;6.838;2023-07-31T10:03:05;17.80;99.90
37702;DHT22;23548;51.196;6.838;2023-07-31T10:05:40;17.80;99.90
37702;DHT22;23548;51.196;6.838;2023-07-31T10:08:07;17.90;99.90
37702;DHT22;23548;51.196;6.838;2023-07-31T10:10:36;18.10;99.90
37702;DHT22;23548;51.196;6.838;2023-07-31T10:13:04;18.10;99.90
37702;DHT22;23548;51.196;6.838;2023-07-31T10:15:31;18.10;99.90
37702;DHT22;23548;51.196;6.838;2023-07-31T10:17:58;18.20;99.90
37702;DHT22;23548;51.196;6.838;2023-07-31T10:20:24;18.10;99.90
37702;DHT22;23548;51.196;6.838;2023-07-31T10:22:53;18.10;99.90
37702;DHT22;23548;51.196;6.838;2023-07-31T10:25:20;17.90;99.90
37702;DHT22;23548;51.196;6.838;2023-07-31T10:27:47;18.10;99.90
37702;DHT22;23548;51.196;6.838;2023-07-31T10:30:20;18.30;99.90
37702;DHT22;23548;51.196;6.838;2023-07-31T10:32:47;18.60;99.90
37702;DHT22;23548;51.196;6.838;2023-07-31T10:35:16;18.60;99.90
37702;DHT22;23548;51.196;6.838;2023-07-31T10:37:43;18.90;99.90
37702;DHT22;23548;51.196;6.838;2023-07-31T10:40:24;19.30;99.90
37702;DHT22;23548;51.196;6.838;2023-07-31T10:42:56;19.80;99.90
37702;DHT22;23548;51.196;6.838;2023-07-31T10:45:33;20.50;99.90
37702;DHT22;23548;51.196;6.838;2023-07-31T10:48:04;20.60;99.90
37702;DHT22;23548;51.196;6.838;2023-07-31T10:50:31;20.90;99.90
37702;DHT22;23548;51.196;6.838;2023-07-31T10:53:00;20.30;99.90
37702;DHT22;23548;51.196;6.838;2023-07-31T10:57:53;20.40;99.90
37702;DHT22;23548;51.196;6.838;2023-07-31T11:00:27;20.30;99.90
37702;DHT22;23548;51.196;6.838;2023-07-31T11:03:10;19.80;99.90
37702;DHT22;23548;51.196;6.838;2023-07-31T11:08:47;19.80;99.90
37702;DHT22;23548;51.196;6.838;2023-07-31T11:11:15;19.80;99.90
37702;DHT22;23548;51.196;6.838;2023-07-31T11:13:52;19.80;99.90
37702;DHT22;23548;51.196;6.838;2023-07-31T11:16:20;19.70;99.90
37702;DHT22;23548;51.196;6.838;2023-07-31T11:18:47;19.70;99.90
37702;DHT22;23548;51.196;6.838;2023-07-31T11:21:15;19.90;99.90
37702;DHT22;23548;51.196;6.838;2023-07-31T11:23:46;19.90;99.90
37702;DHT22;23548;51.196;6.838;2023-07-31T11:26:12;20.20;99.90
37702;DHT22;23548;51.196;6.838;2023-07-31T11:28:38;20.20;99.90
37702;DHT22;23548;51.196;6.838;2023-07-31T11:31:04;20.40;99.90
37702;DHT22;23548;51.196;6.838;2023-07-31T11:33:30;20.40;99.90
37702;DHT22;23548;51.196;6.838;2023-07-31T11:35:56;20.70;99.90
37702;DHT22;23548;51.196;6.838;2023-07-31T11:38:28;20.80;99.90
37702;DHT22;23548;51.196;6.838;2023-07-31T11:40:57;20.90;99.90
37702;DHT22;23548;51.196;6.838;2023-07-31T11:43:23;20.40;99.90
37702;DHT22;23548;51.196;6.838;2023-07-31T11:45:51;20.40;99.90
37702;DHT22;23548;51.196;6.838;2023-07-31T11:50:51;20.30;99.90
37702;DHT22;23548;51.196;6.838;2023-07-31T11:53:24;20.40;99.90
37702;DHT22;23548;51.196;6.838;2023-07-31T11:55:51;20.30;99.90
37702;DHT22;23548;51.196;6.838;2023-07-31T11:58:17;20.20;99.90
37702;DHT22;23548;51.196;6.838;2023-07-31T12:00:43;20.30;99.90
37702;DHT22;23548;51.196;6.838;2023-07-31T12:03:10;20.00;99.90
37702;DHT22;23548;51.196;6.838;2023-07-31T12:05:37;20.00;99.90
37702;DHT22;23548;51.196;6.838;2023-07-31T12:08:12;20.20;99.90
37702;DHT22;23548;51.196;6.838;2023-07-31T12:10:38;20.30;99.90
37702;DHT22;23548;51.196;6.838;2023-07-31T12:13:23;20.40;99.90
37702;DHT22;23548;51.196;6.838;2023-07-31T12:15:54;20.40;99.90
37702;DHT22;23548;51.196;6.838;2023-07-31T12:18:22;20.40;99.90
37702;DHT22;23548;51.196;6.838;2023-07-31T12:20:54;20.20;99.90
37702;DHT22;23548;51.196;6.838;2023-07-31T12:23:22;20.20;99.90
37702;DHT22;23548;51.196;6.838;2023-07-31T12:26:09;20.10;99.90
37702;DHT22;23548;51.196;6.838;2023-07-31T12:28:43;20.30;99.90
37702;DHT22;23548;51.196;6.838;2023-07-31T12:31:17;20.20;99.90
37702;DHT22;23548;51.196;6.838;2023-07-31T12:33:44;20.10;99.90
37702;DHT22;23548;51.196;6.838;2023-07-31T12:36:12;20.30;99.90
37702;DHT22;23548;51.196;6.838;2023-07-31T12:38:39;20.40;99.90
37702;DHT22;23548;51.196;6.838;2023-07-31T12:41:04;20.30;99.90
37702;DHT22;23548;51.196;6.838;2023-07-31T12:43:35;20.60;99.90
37702;DHT22;23548;51.196;6.838;2023-07-31T12:46:01;20.70;99.90
37702;DHT22;23548;51.196;6.838;2023-07-31T12:48:27;21.30;99.90
37702;DHT22;23548;51.196;6.838;2023-07-31T12:50:53;21.70;99.90
37702;DHT22;23548;51.196;6.838;2023-07-31T12:53:19;21.40;99.90
37702;DHT22;23548;51.196;6.838;2023-07-31T12:55:44;21.40;99.90
37702;DHT22;23548;51.196;6.838;2023-07-31T12:58:10;21.10;99.90
37702;DHT22;23548;51.196;6.838;2023-07-31T13:00:36;20.90;99.90
37702;DHT22;23548;51.196;6.838;2023-07-31T13:03:02;21.10;99.90
37702;DHT22;23548;51.196;6.838;2023-07-31T13:05:28;21.30;99.90
37702;DHT22;23548;51.196;6.838;2023-07-31T13:07:55;21.60;99.90
37702;DHT22;23548;51.196;6.838;2023-07-31T13:10:22;21.80;99.90
37702;DHT22;23548;51.196;6.838;2023-07-31T13:12:49;22.00;99.90
37702;DHT22;23548;51.196;6.838;2023-07-31T13:15:15;21.90;99.90
37702;DHT22;23548;51.196;6.838;2023-07-31T13:17:40;21.70;99.90
37702;DHT22;23548;51.196;6.838;2023-07-31T13:20:07;21.70;99.90
37702;DHT22;23548;51.196;6.838;2023-07-31T13:22:33;21.30;99.90
37702;DHT22;23548;51.196;6.838;2023-07-31T13:24:58;21.20;99.90
37702;DHT22;23548;51.196;6.838;2023-07-31T13:27:24;21.20;99.90
37702;DHT22;23548;51.196;6.838;2023-07-31T13:29:53;21.20;99.90
37702;DHT22;23548;51.196;6.838;2023-07-31T13:32:20;21.60;99.90
37702;DHT22;23548;51.196;6.838;2023-07-31T13:34:46;21.90;99.90
37702;DHT22;23548;51.196;6.838;2023-07-31T13:37:12;21.90;99.90
37702;DHT22;23548;51.196;6.838;2023-07-31T13:39:38;22.40;99.90
37702;DHT22;23548;51.196;6.838;2023-07-31T13:42:05;22.60;99.90
37702;DHT22;23548;51.196;6.838;2023-07-31T13:44:34;23.10;99.90
37702;DHT22;23548;51.196;6.838;2023-07-31T13:47:01;23.00;99.90
37702;DHT22;23548;51.196;6.838;2023-07-31T13:49:27;23.40;99.90
37702;DHT22;23548;51.196;6.838;2023-07-31T13:51:53;22.80;99.90
37702;DHT22;23548;51.196;6.838;2023-07-31T13:54:18;22.70;99.90
37702;DHT22;23548;51.196;6.838;2023-07-31T13:56:44;22.70;99.90
37702;DHT22;23548;51.196;6.838;2023-07-31T13:59:10;22.70;99.90
37702;DHT22;23548;51.196;6.838;2023-07-31T14:01:36;22.50;99.90
37702;DHT22;23548;51.196;6.838;2023-07-31T14:04:03;22.40;99.90
37702;DHT22;23548;51.196;6.838;2023-07-31T14:06:28;22.20;99.90
37702;DHT22;23548;51.196;6.838;2023-07-31T14:08:54;21.90;99.90
37702;DHT22;23548;51.196;6.838;2023-07-31T14:11:22;21.60;99.90
37702;DHT22;23548;51.196;6.838;2023-07-31T14:13:49;21.50;99.90
37702;DHT22;23548;51.196;6.838;2023-07-31T14:16:15;21.20;99.90
37702;DHT22;23548;51.196;6.838;2023-07-31T14:18:41;21.00;99.90
37702;DHT22;23548;51.196;6.838;2023-07-31T14:21:06;21.20;99.90
37702;DHT22;23548;51.196;6.838;2023-07-31T14:23:32;21.10;99.90
37702;DHT22;23548;51.196;6.838;2023-07-31T14:25:58;21.00;99.90
37702;DHT22;23548;51.196;6.838;2023-07-31T14:28:23;20.80;99.90
37702;DHT22;23548;51.196;6.838;2023-07-31T14:30:49;20.80;99.90
37702;DHT22;23548;51.196;6.838;2023-07-31T14:33:15;20.90;99.90
37702;DHT22;23548;51.196;6.838;2023-07-31T14:35:41;20.90;99.90
37702;DHT22;23548;51.196;6.838;2023-07-31T14:38:07;20.70;99.90
37702;DHT22;23548;51.196;6.838;2023-07-31T14:40:33;20.70;99.90
37702;DHT22;23548;51.196;6.838;2023-07-31T14:42:59;20.90;99.90
37702;DHT22;23548;51.196;6.838;2023-07-31T14:45:24;20.90;99.90
37702;DHT22;23548;51.196;6.838;2023-07-31T14:47:50;21.40;99.90
37702;DHT22;23548;51.196;6.838;2023-07-31T14:50:19;21.50;99.90
37702;DHT22;23548;51.196;6.838;2023-07-31T14:52:47;21.70;99.90
37702;DHT22;23548;51.196;6.838;2023-07-31T14:55:13;21.70;99.90
37702;DHT22;23548;51.196;6.838;2023-07-31T14:57:39;21.70;99.90
37702;DHT22;23548;51.196;6.838;2023-07-31T15:00:05;21.90;99.90
37702;DHT22;23548;51.196;6.838;2023-07-31T15:02:34;22.00;99.90
37702;DHT22;23548;51.196;6.838;2023-07-31T15:05:01;21.70;99.90
37702;DHT22;23548;51.196;6.838;2023-07-31T15:07:26;21.70;99.90
37702;DHT22;23548;51.196;6.838;2023-07-31T15:09:52;21.70;99.90
37702;DHT22;23548;51.196;6.838;2023-07-31T15:12:18;21.50;99.90
37702;DHT22;23548;51.196;6.838;2023-07-31T15:14:43;21.30;99.90
37702;DHT22;23548;51.196;6.838;2023-07-31T15:17:09;21.20;99.90
37702;DHT22;23548;51.196;6.838;2023-07-31T15:19:35;21.20;99.90
37702;DHT22;23548;51.196;6.838;2023-07-31T15:22:03;21.20;99.90
37702;DHT22;23548;51.196;6.838;2023-07-31T15:24:29;21.10;99.90
37702;DHT22;23548;51.196;6.838;2023-07-31T15:26:54;21.20;99.90
37702;DHT22;23548;51.196;6.838;2023-07-31T15:29:21;21.30;99.90
37702;DHT22;23548;51.196;6.838;2023-07-31T15:31:47;21.20;99.90
37702;DHT22;23548;51.196;6.838;2023-07-31T15:34:14;21.20;99.90
37702;DHT22;23548;51.196;6.838;2023-07-31T15:36:40;21.20;99.90
37702;DHT22;23548;51.196;6.838;2023-07-31T15:39:07;21.10;99.90
37702;DHT22;23548;51.196;6.838;2023-07-31T15:41:37;21.20;99.90
37702;DHT22;23548;51.196;6.838;2023-07-31T15:44:03;21.00;99.90